Portada
METAR-TAF:

METAR-TAF

Aeroports :

David, Panamà

latitud: 08-24N, longitud: 082-25W, altitud: 29 m

Observació

L'informe es va fer fa 57 minuts, a les 14:00 UTC
Vent 3 kt del Est
Temperatura 26°C
Humitat 84%
Pressió 1012 hPa
Visibilitat 10 km o més
Núvols disperses a una alçada de 1500 ft

METAR: MPDA 121400Z 08003KT 9999 SCT015 26/23 Q1012

Hora: 09:57 (14:57 UTC)

Pronòstic

L'informe es va fer fa 3 hores i 57 minuts, a les 11:00 UTC
Pronòstic vàlid del 12 a les 12 UTC al 12 a les 24 UTC
Visibilitat 10 km o més
Núvols disperses a una alçada de 1600 ft
Probabilitat 30%
l' 12 a les 16 UTC al 12 a les 20 UTC
Visibilitat: 7000 m
Núvols disperses a una alçada de 1300 ft, Cumulonimbus.
Cel ennuvolat a una alçada de 7000 ft
tempesta, pluja
Temporalment
l' 12 a les 21 UTC al 12 a les 24 UTC
Vent 6 kt del Sud
Visibilitat 10 km o més

TAF: MPDA 121100Z 1212/1224 2008KT 9999 SCT016 PROB30 1216/1220 7000 TSRA SCT013CB BKN070 TEMPO 1221/1224 18006KT 9999 NSW

Observacions i pronòstics meteorològics de més de 4000 aeroports (METAR i TAF).

Les estacions disponibles són els punts grocs i vermells al mapa.

Posi el ratolí al punt desitjat per veure el nom de l'estació.

Feu clic per veure les observacions i els pronòstics meteorològics.

Per canviar el mapa: feu clic els botons verds amb una creu de color negre per apropar; al botó verd amb un guió per allunyar la imatge; o en les fletxes verdes per a mapes adjacents.


METAR-TAF: